createdAt,value
2023-04-26T00:01:51.483Z,8.77
2023-04-26T00:06:54.898Z,8.71
2023-04-26T00:11:58.006Z,8.68
2023-04-26T00:17:02.953Z,8.66
2023-04-26T00:22:06.644Z,8.65
2023-04-26T00:27:10.864Z,8.65
2023-04-26T00:32:13.970Z,8.62
2023-04-26T00:37:17.138Z,8.60
2023-04-26T00:42:20.143Z,8.54
2023-04-26T00:47:29.742Z,8.46
2023-04-26T00:52:32.818Z,8.38
2023-04-26T00:57:35.928Z,8.28
2023-04-26T01:02:39.179Z,8.20
2023-04-26T01:07:42.447Z,8.12
2023-04-26T01:12:46.062Z,8.07
2023-04-26T01:17:49.935Z,8.06
2023-04-26T01:22:52.898Z,8.13
2023-04-26T01:27:55.826Z,8.19
2023-04-26T01:32:58.832Z,8.20
2023-04-26T01:38:02.022Z,8.14
2023-04-26T01:43:05.023Z,7.98
2023-04-26T01:48:09.115Z,7.86
2023-04-26T01:53:12.466Z,7.81
2023-04-26T01:58:15.577Z,7.82
2023-04-26T02:03:18.592Z,7.89
2023-04-26T02:08:21.591Z,7.95
2023-04-26T02:13:24.901Z,8.05
2023-04-26T02:18:27.809Z,8.06
2023-04-26T02:23:30.713Z,8.12
2023-04-26T02:28:33.620Z,8.15
2023-04-26T02:33:36.830Z,8.16
2023-04-26T02:38:39.846Z,8.09
2023-04-26T02:43:42.745Z,8.06
2023-04-26T02:48:45.757Z,7.92
2023-04-26T02:53:48.758Z,7.76
2023-04-26T02:58:52.711Z,7.58
2023-04-26T03:03:56.364Z,7.38
2023-04-26T03:08:59.510Z,7.17
2023-04-26T03:14:02.523Z,7.03
2023-04-26T03:19:05.732Z,6.90
2023-04-26T03:24:08.838Z,6.79
2023-04-26T03:29:12.977Z,6.75
2023-04-26T03:34:15.992Z,6.68
2023-04-26T03:39:19.299Z,6.60
2023-04-26T03:44:22.304Z,6.57
2023-04-26T03:49:25.411Z,6.55
2023-04-26T03:54:28.318Z,6.62
2023-04-26T03:59:34.703Z,7.18
2023-04-26T04:04:37.943Z,8.10
2023-04-26T04:09:41.017Z,9.13
2023-04-26T04:14:43.927Z,10.89
2023-04-26T04:19:46.825Z,12.56
2023-04-26T04:24:49.837Z,13.63
2023-04-26T04:29:56.257Z,14.13
2023-04-26T04:34:59.840Z,14.83
2023-04-26T04:40:03.057Z,16.00
2023-04-26T04:45:07.030Z,17.11
2023-04-26T04:50:10.297Z,18.32
2023-04-26T04:55:13.448Z,19.36
2023-04-26T05:00:17.382Z,20.28
2023-04-26T05:05:20.902Z,20.89
2023-04-26T05:10:23.859Z,21.41
2023-04-26T05:15:27.232Z,21.98
2023-04-26T05:20:31.222Z,22.47
2023-04-26T05:25:37.589Z,22.72
2023-04-26T05:30:40.994Z,23.07
2023-04-26T05:35:44.013Z,23.53
2023-04-26T05:40:48.455Z,23.68
2023-04-26T05:45:56.638Z,23.76
2023-04-26T05:50:59.625Z,24.17
2023-04-26T05:56:02.694Z,23.91
2023-04-26T06:01:06.416Z,22.91
2023-04-26T06:06:09.829Z,22.82
2023-04-26T06:11:12.846Z,22.19
2023-04-26T06:16:16.290Z,21.85
2023-04-26T06:21:20.079Z,22.44
2023-04-26T06:26:23.097Z,22.94
2023-04-26T06:31:26.430Z,23.43
2023-04-26T06:36:29.716Z,24.21
2023-04-26T06:41:32.831Z,23.83
2023-04-26T06:46:35.959Z,22.07
2023-04-26T06:51:39.247Z,20.82
2023-04-26T06:56:42.153Z,20.22
2023-04-26T07:01:45.307Z,19.70
2023-04-26T07:06:49.117Z,19.83
2023-04-26T07:11:52.313Z,19.78
2023-04-26T07:16:55.308Z,19.14
2023-04-26T07:21:58.525Z,18.22
2023-04-26T07:27:02.240Z,17.83
2023-04-26T07:32:05.759Z,17.32
2023-04-26T07:37:09.381Z,16.64
2023-04-26T07:42:12.692Z,16.54
2023-04-26T07:47:16.119Z,15.64
2023-04-26T07:52:19.321Z,14.59
2023-04-26T07:57:22.427Z,14.03
2023-04-26T08:02:33.231Z,14.03
2023-04-26T08:07:46.872Z,13.54
2023-04-26T08:12:50.390Z,13.16
2023-04-26T08:17:53.625Z,12.69
2023-04-26T08:22:57.447Z,12.82
2023-04-26T08:28:01.001Z,13.62
2023-04-26T08:33:04.086Z,13.36
2023-04-26T08:38:07.475Z,12.58
2023-04-26T08:43:11.294Z,11.73
2023-04-26T08:48:16.404Z,10.95
2023-04-26T08:53:20.076Z,10.38
2023-04-26T08:58:23.898Z,10.09
2023-04-26T09:03:27.597Z,10.06
2023-04-26T09:08:30.940Z,10.17
2023-04-26T09:13:34.157Z,10.35
2023-04-26T09:18:49.993Z,10.73
2023-04-26T09:24:01.900Z,11.08
2023-04-26T09:29:19.163Z,11.29
2023-04-26T09:34:22.537Z,11.65
2023-04-26T09:39:32.905Z,12.05
2023-04-26T09:44:36.211Z,12.36
2023-04-26T09:49:50.978Z,12.54
2023-04-26T09:54:55.133Z,12.54
2023-04-26T09:59:58.357Z,12.40
2023-04-26T10:05:03.138Z,12.19
2023-04-26T10:10:07.977Z,11.90
2023-04-26T10:15:12.196Z,11.85
2023-04-26T10:20:18.466Z,11.95
2023-04-26T10:25:21.876Z,11.74
2023-04-26T10:30:25.102Z,11.32
2023-04-26T10:35:30.506Z,11.02
2023-04-26T10:40:40.442Z,10.86
2023-04-26T10:45:45.904Z,10.90
2023-04-26T10:51:13.470Z,11.03
2023-04-26T10:56:25.890Z,11.14
2023-04-26T11:01:30.845Z,11.37
2023-04-26T11:06:58.065Z,11.53
2023-04-26T11:12:01.141Z,11.20
2023-04-26T11:17:08.395Z,10.68
2023-04-26T11:22:11.549Z,10.53
2023-04-26T11:27:14.759Z,10.64
2023-04-26T11:32:20.326Z,10.54
2023-04-26T11:37:23.431Z,10.39
2023-04-26T11:42:26.952Z,10.22
2023-04-26T11:47:31.597Z,9.97
2023-04-26T11:52:34.705Z,9.78
2023-04-26T11:57:37.914Z,9.73
2023-04-26T12:02:48.282Z,10.05
2023-04-26T12:07:57.038Z,10.57
2023-04-26T12:13:00.476Z,10.90
2023-04-26T12:18:11.806Z,10.98
2023-04-26T12:23:17.456Z,10.99
2023-04-26T12:28:20.977Z,10.90
2023-04-26T12:33:25.692Z,10.72
2023-04-26T12:38:28.899Z,10.30
2023-04-26T12:43:32.528Z,9.84
2023-04-26T12:48:36.403Z,9.64
2023-04-26T12:53:39.462Z,9.63
2023-04-26T12:58:42.773Z,9.78
2023-04-26T13:03:46.685Z,10.08
2023-04-26T13:08:50.017Z,10.49
2023-04-26T13:13:53.090Z,10.81
2023-04-26T13:18:56.571Z,10.88
2023-04-26T13:23:59.751Z,10.89
2023-04-26T13:29:04.520Z,10.91
2023-04-26T13:34:07.824Z,10.92
2023-04-26T13:39:11.122Z,10.97
2023-04-26T13:44:15.865Z,11.00
2023-04-26T13:49:18.979Z,10.86
2023-04-26T13:54:22.803Z,10.63
2023-04-26T13:59:27.282Z,10.34
2023-04-26T14:04:31.156Z,10.33
2023-04-26T14:09:34.690Z,10.43
2023-04-26T14:14:38.006Z,10.39
2023-04-26T14:19:42.608Z,9.99
2023-04-26T14:24:46.374Z,9.56
2023-04-26T14:29:49.807Z,9.28
2023-04-26T14:34:53.012Z,9.13
2023-04-26T14:39:56.416Z,9.09
2023-04-26T14:45:00.353Z,9.19
2023-04-26T14:50:04.728Z,9.38
2023-04-26T14:55:08.864Z,9.61
2023-04-26T15:00:15.636Z,9.80
2023-04-26T15:05:18.936Z,9.90
2023-04-26T15:10:22.134Z,9.88
2023-04-26T15:15:25.247Z,9.70
2023-04-26T15:20:28.597Z,9.47
2023-04-26T15:25:35.191Z,9.43
2023-04-26T15:30:38.252Z,9.52
2023-04-26T15:35:41.770Z,9.60
2023-04-26T15:40:45.291Z,9.61
2023-04-26T15:45:50.066Z,9.85
2023-04-26T15:50:57.172Z,10.17
2023-04-26T15:56:00.480Z,10.22
2023-04-26T16:01:03.807Z,10.06
2023-04-26T16:06:08.828Z,9.70
2023-04-26T16:11:11.937Z,9.36
2023-04-26T16:16:15.179Z,9.26
2023-04-26T16:21:18.252Z,9.25
2023-04-26T16:26:22.389Z,9.21
2023-04-26T16:31:26.709Z,9.15
2023-04-26T16:36:30.148Z,9.14
2023-04-26T16:41:33.574Z,9.03
2023-04-26T16:46:37.198Z,8.90
2023-04-26T16:51:41.115Z,8.77
2023-04-26T16:56:44.221Z,8.62
2023-04-26T17:01:50.845Z,8.45
2023-04-26T17:06:55.041Z,8.26
2023-04-26T17:11:58.365Z,8.08
2023-04-26T17:17:01.460Z,7.91
2023-04-26T17:22:06.418Z,7.72
2023-04-26T17:27:09.538Z,7.52
2023-04-26T17:32:12.777Z,7.33
2023-04-26T17:37:15.847Z,7.15
2023-04-26T17:42:19.062Z,6.99
2023-04-26T17:47:22.481Z,6.85
2023-04-26T17:52:25.690Z,6.71
2023-04-26T17:57:28.791Z,6.49
2023-04-26T18:02:32.134Z,6.28
2023-04-26T18:07:35.729Z,6.08
2023-04-26T18:12:38.931Z,5.88
2023-04-26T18:17:42.118Z,5.68
2023-04-26T18:22:45.253Z,5.47
2023-04-26T18:27:49.103Z,5.31
2023-04-26T18:32:53.374Z,5.18
2023-04-26T18:37:57.352Z,5.08
2023-04-26T18:43:00.675Z,4.95
2023-04-26T18:48:04.204Z,4.84
2023-04-26T18:53:07.391Z,4.79
2023-04-26T18:58:10.952Z,4.76
2023-04-26T19:03:14.174Z,4.72
2023-04-26T19:08:17.825Z,4.63
2023-04-26T19:13:21.115Z,4.50
2023-04-26T19:18:24.385Z,4.38
2023-04-26T19:23:27.593Z,4.22
2023-04-26T19:28:31.275Z,4.02
2023-04-26T19:33:34.318Z,3.78
2023-04-26T19:38:37.524Z,3.57
2023-04-26T19:43:40.746Z,3.38
2023-04-26T19:48:43.951Z,3.20
2023-04-26T19:53:47.165Z,3.05
2023-04-26T19:58:50.377Z,2.92
2023-04-26T20:03:53.772Z,2.77
2023-04-26T20:08:57.015Z,2.62
2023-04-26T20:14:00.416Z,2.49
2023-04-26T20:19:03.726Z,2.39
2023-04-26T20:24:07.309Z,2.32
2023-04-26T20:29:10.355Z,2.22
2023-04-26T20:34:13.362Z,2.12
2023-04-26T20:39:16.770Z,2.03
2023-04-26T20:44:19.877Z,1.97
2023-04-26T20:49:23.269Z,1.92
2023-04-26T20:54:26.409Z,1.84
2023-04-26T20:59:29.518Z,1.78
2023-04-26T21:04:32.886Z,1.73
2023-04-26T21:09:36.150Z,1.68
2023-04-26T21:14:39.253Z,1.64
2023-04-26T21:19:42.853Z,1.57
2023-04-26T21:24:45.984Z,1.49
2023-04-26T21:29:48.989Z,1.43
2023-04-26T21:34:52.097Z,1.35
2023-04-26T21:39:55.108Z,1.25
2023-04-26T21:44:58.113Z,1.14
2023-04-26T21:50:01.336Z,1.04
2023-04-26T21:55:04.917Z,0.98
2023-04-26T22:00:11.814Z,0.94
2023-04-26T22:05:14.745Z,0.89
2023-04-26T22:10:18.242Z,0.84
2023-04-26T22:15:21.583Z,0.79
2023-04-26T22:20:24.728Z,0.75
2023-04-26T22:25:27.692Z,0.69
2023-04-26T22:30:30.635Z,0.62
2023-04-26T22:35:33.618Z,0.57
2023-04-26T22:40:36.817Z,0.51
2023-04-26T22:45:39.838Z,0.46
2023-04-26T22:50:43.147Z,0.42
2023-04-26T22:55:46.450Z,0.38
2023-04-26T23:00:49.473Z,0.33
2023-04-26T23:05:52.571Z,0.29
2023-04-26T23:10:55.474Z,0.25
2023-04-26T23:15:58.480Z,0.95
2023-04-26T23:21:01.698Z,2.62
2023-04-26T23:26:08.241Z,3.31
2023-04-26T23:31:11.546Z,3.78
2023-04-26T23:36:14.600Z,4.20
2023-04-26T23:41:17.502Z,4.50
2023-04-26T23:46:20.548Z,4.73
2023-04-26T23:51:23.621Z,4.97
2023-04-26T23:56:26.623Z,5.17
